createdAt,value
2022-12-28T00:02:26.467Z,96.57
2022-12-28T00:05:13.482Z,97.22
2022-12-28T00:08:00.382Z,97.24
2022-12-28T00:11:07.935Z,97.42
2022-12-28T00:13:55.350Z,96.72
2022-12-28T00:16:51.093Z,97.26
2022-12-28T00:19:38.108Z,97.44
2022-12-28T00:22:25.125Z,97.50
2022-12-28T00:25:11.953Z,97.25
2022-12-28T00:27:59.014Z,97.27
2022-12-28T00:30:45.792Z,97.42
2022-12-28T00:33:33.339Z,97.81
2022-12-28T00:36:21.987Z,97.27
2022-12-28T00:39:09.049Z,97.13
2022-12-28T00:41:55.913Z,97.56
2022-12-28T00:44:43.178Z,96.77
2022-12-28T00:47:30.042Z,96.65
2022-12-28T00:50:16.908Z,97.16
2022-12-28T00:53:03.807Z,97.17
2022-12-28T00:55:52.412Z,97.17
2022-12-28T00:58:39.193Z,97.84
2022-12-28T01:01:31.540Z,97.34
2022-12-28T01:04:19.706Z,96.66
2022-12-28T01:07:07.997Z,97.36
2022-12-28T01:09:54.888Z,97.21
2022-12-28T01:12:41.814Z,97.39
2022-12-28T01:15:31.013Z,97.80
2022-12-28T01:18:18.108Z,97.55
2022-12-28T01:21:04.997Z,97.00
2022-12-28T01:23:51.947Z,97.17
2022-12-28T01:26:38.764Z,97.50
2022-12-28T01:29:25.962Z,96.82
2022-12-28T01:32:12.794Z,97.03
2022-12-28T01:34:59.879Z,97.92
2022-12-28T01:37:46.728Z,97.60
2022-12-28T01:40:35.291Z,96.85
2022-12-28T01:43:29.412Z,97.10
2022-12-28T01:46:16.935Z,96.83
2022-12-28T01:49:36.621Z,97.18
2022-12-28T01:52:45.881Z,97.17
2022-12-28T01:55:47.839Z,98.09
2022-12-28T01:58:41.052Z,98.06
2022-12-28T02:01:28.173Z,97.33
2022-12-28T02:04:15.611Z,96.93
2022-12-28T02:07:02.548Z,98.00
2022-12-28T02:10:42.804Z,97.08
2022-12-28T02:13:07.070Z,98.02
2022-12-28T02:15:53.943Z,97.24
2022-12-28T02:18:42.261Z,97.22
2022-12-28T02:21:29.951Z,97.99
2022-12-28T02:24:35.533Z,98.06
2022-12-28T02:27:28.868Z,97.06
2022-12-28T02:30:21.550Z,97.20
2022-12-28T02:33:12.081Z,97.14
2022-12-28T02:36:18.502Z,97.98
2022-12-28T02:39:11.891Z,97.50
2022-12-28T02:42:01.385Z,97.97
2022-12-28T02:44:46.955Z,97.17
2022-12-28T02:47:35.790Z,97.05
2022-12-28T02:50:26.857Z,97.93
2022-12-28T02:53:29.429Z,96.95
2022-12-28T02:56:28.558Z,97.02
2022-12-28T02:59:24.457Z,97.83
2022-12-28T03:02:59.746Z,98.16
2022-12-28T03:05:51.509Z,97.48
2022-12-28T03:08:47.124Z,97.45
2022-12-28T03:11:42.646Z,97.09
2022-12-28T03:14:36.951Z,96.94
2022-12-28T03:17:24.489Z,98.10
2022-12-28T03:20:15.642Z,97.56
2022-12-28T03:23:03.196Z,97.11
2022-12-28T03:25:56.402Z,98.04
2022-12-28T03:28:50.805Z,97.86
2022-12-28T03:31:43.581Z,97.10
2022-12-28T03:34:33.420Z,97.79
2022-12-28T03:37:39.221Z,98.09
2022-12-28T03:40:42.741Z,97.07
2022-12-28T03:43:40.098Z,97.27
2022-12-28T03:46:31.466Z,97.67
2022-12-28T03:49:19.512Z,98.07
2022-12-28T03:52:08.242Z,97.74
2022-12-28T03:54:55.381Z,97.66
2022-12-28T03:57:43.726Z,97.59
2022-12-28T04:00:36.869Z,97.40
2022-12-28T04:03:23.812Z,97.47
2022-12-28T04:06:10.928Z,97.94
2022-12-28T04:08:58.019Z,97.28
2022-12-28T04:11:47.849Z,97.32
2022-12-28T04:14:41.949Z,97.90
2022-12-28T04:17:28.848Z,97.06
2022-12-28T04:20:15.715Z,96.92
2022-12-28T04:23:03.174Z,97.67
2022-12-28T04:25:50.118Z,97.43
2022-12-28T04:28:37.146Z,97.85
2022-12-28T04:31:42.795Z,97.72
2022-12-28T04:34:33.022Z,97.56
2022-12-28T04:37:27.566Z,98.00
2022-12-28T04:40:14.507Z,96.72
2022-12-28T04:43:01.509Z,97.21
2022-12-28T04:45:48.465Z,96.93
2022-12-28T04:48:35.402Z,97.03
2022-12-28T04:51:30.834Z,97.67
2022-12-28T04:54:18.234Z,97.34
2022-12-28T04:57:05.149Z,96.56
2022-12-28T04:59:52.306Z,97.64
2022-12-28T05:02:39.472Z,96.98
2022-12-28T05:05:26.895Z,97.36
2022-12-28T05:08:13.855Z,96.75
2022-12-28T05:11:00.683Z,97.71
2022-12-28T05:13:48.138Z,96.64
2022-12-28T05:16:38.057Z,97.32
2022-12-28T05:19:25.018Z,97.20
2022-12-28T05:22:11.799Z,96.45
2022-12-28T05:25:01.623Z,97.76
2022-12-28T05:27:48.609Z,96.62
2022-12-28T05:30:35.701Z,96.49
2022-12-28T05:33:22.498Z,96.70
2022-12-28T05:36:09.386Z,97.04
2022-12-28T05:38:56.676Z,96.59
2022-12-28T05:41:48.509Z,96.59
2022-12-28T05:44:35.424Z,97.33
2022-12-28T05:47:22.379Z,96.69
2022-12-28T05:50:09.420Z,97.17
2022-12-28T05:52:56.485Z,96.69
2022-12-28T05:55:43.346Z,97.69
2022-12-28T05:58:30.261Z,96.41
2022-12-28T06:01:28.435Z,96.90
2022-12-28T06:04:43.173Z,96.45
2022-12-28T06:07:30.018Z,97.30
2022-12-28T06:10:16.891Z,96.36
2022-12-28T06:13:04.284Z,96.49
2022-12-28T06:15:51.194Z,96.56
2022-12-28T06:18:38.089Z,97.37
2022-12-28T06:21:27.747Z,96.67
2022-12-28T06:24:16.094Z,97.42
2022-12-28T06:27:03.006Z,96.67
2022-12-28T06:29:49.885Z,96.26
2022-12-28T06:32:37.041Z,96.25
2022-12-28T06:35:24.253Z,97.18
2022-12-28T06:38:11.188Z,96.75
2022-12-28T06:41:14.592Z,96.94
2022-12-28T06:44:03.470Z,96.68
2022-12-28T06:46:51.639Z,97.32
2022-12-28T06:49:38.523Z,96.96
2022-12-28T06:52:25.799Z,96.80
2022-12-28T06:55:12.645Z,96.17
2022-12-28T06:57:59.590Z,97.27
2022-12-28T07:00:46.462Z,96.17
2022-12-28T07:03:33.670Z,96.80
2022-12-28T07:06:21.393Z,96.88
2022-12-28T07:09:08.975Z,96.46
2022-12-28T07:11:56.113Z,97.09
2022-12-28T07:14:43.518Z,95.63
2022-12-28T07:17:30.486Z,96.96
2022-12-28T07:20:17.356Z,97.21
2022-12-28T07:23:04.222Z,96.90
2022-12-28T07:25:51.202Z,96.61
2022-12-28T07:28:38.089Z,95.69
2022-12-28T07:31:10.577Z,96.05
2022-12-28T07:33:58.412Z,95.67
2022-12-28T07:36:47.305Z,97.02
2022-12-28T07:39:34.166Z,95.53
2022-12-28T07:42:21.051Z,96.23
2022-12-28T07:45:08.135Z,95.67
2022-12-28T07:47:55.107Z,96.19
2022-12-28T07:50:42.085Z,95.67
2022-12-28T07:53:29.161Z,95.52
2022-12-28T07:56:20.601Z,95.02
2022-12-28T07:59:18.235Z,94.70
2022-12-28T08:02:05.350Z,95.66
2022-12-28T08:04:52.603Z,95.87
2022-12-28T08:07:39.602Z,95.14
2022-12-28T08:10:27.123Z,96.39
2022-12-28T08:13:13.897Z,95.58
2022-12-28T08:16:00.775Z,94.77
2022-12-28T08:18:47.609Z,95.07
2022-12-28T08:21:42.681Z,96.42
2022-12-28T08:24:34.023Z,95.63
2022-12-28T08:27:20.901Z,96.47
2022-12-28T08:30:07.807Z,96.18
2022-12-28T08:32:55.236Z,95.09
2022-12-28T08:35:42.059Z,94.91
2022-12-28T08:38:28.913Z,95.98
2022-12-28T08:41:17.377Z,95.02
2022-12-28T08:44:04.961Z,94.73
2022-12-28T08:46:54.042Z,95.72
2022-12-28T08:49:41.106Z,95.31
2022-12-28T08:52:27.929Z,94.87
2022-12-28T08:55:15.024Z,94.81
2022-12-28T08:58:02.065Z,95.04
2022-12-28T09:00:48.945Z,95.97
2022-12-28T09:03:35.851Z,94.64
2022-12-28T09:06:24.794Z,95.29
2022-12-28T09:09:15.174Z,95.49
2022-12-28T09:12:02.429Z,95.64
2022-12-28T09:14:49.379Z,95.57
2022-12-28T09:17:36.345Z,94.58
2022-12-28T09:20:23.463Z,94.75
2022-12-28T09:23:10.386Z,94.65
2022-12-28T09:25:57.236Z,95.52
2022-12-28T09:28:44.161Z,95.54
2022-12-28T09:31:31.259Z,95.48
2022-12-28T09:34:37.848Z,94.71
2022-12-28T09:37:26.578Z,94.58
2022-12-28T09:40:13.793Z,95.64
2022-12-28T09:43:03.138Z,94.76
2022-12-28T09:45:52.491Z,94.90
2022-12-28T09:48:43.182Z,94.90
2022-12-28T09:51:30.257Z,94.87
2022-12-28T09:54:17.268Z,94.82
2022-12-28T09:57:05.603Z,95.00
2022-12-28T09:59:55.078Z,94.34
2022-12-28T10:02:50.734Z,95.31
2022-12-28T10:05:39.511Z,95.13
2022-12-28T10:08:26.655Z,95.05
2022-12-28T10:11:15.389Z,94.49
2022-12-28T10:14:02.440Z,94.79
2022-12-28T10:16:55.527Z,94.86
2022-12-28T10:19:45.108Z,94.42
2022-12-28T10:22:35.757Z,94.90
2022-12-28T10:25:22.815Z,94.06
2022-12-28T10:28:09.833Z,94.16
2022-12-28T10:31:25.236Z,95.38
2022-12-28T10:34:12.353Z,94.84
2022-12-28T10:37:00.594Z,94.67
2022-12-28T10:39:49.783Z,95.33
2022-12-28T10:42:47.660Z,94.90
2022-12-28T10:45:41.556Z,95.58
2022-12-28T10:48:39.489Z,94.80
2022-12-28T10:51:46.513Z,94.38
2022-12-28T10:54:27.879Z,94.81
2022-12-28T10:57:17.609Z,94.98
2022-12-28T11:00:04.593Z,94.87
2022-12-28T11:02:55.290Z,95.19
2022-12-28T11:05:45.158Z,94.55
2022-12-28T11:08:36.824Z,94.87
2022-12-28T11:11:24.160Z,94.80
2022-12-28T11:14:23.342Z,95.36
2022-12-28T11:16:50.378Z,95.17
2022-12-28T11:19:17.498Z,94.57
2022-12-28T11:21:44.833Z,95.28
2022-12-28T11:24:17.026Z,95.49
2022-12-28T11:26:53.230Z,94.79
2022-12-28T11:29:20.401Z,95.73
2022-12-28T11:31:55.259Z,95.28
2022-12-28T11:34:27.880Z,94.72
2022-12-28T11:36:55.821Z,95.67
2022-12-28T11:39:25.761Z,94.36
2022-12-28T11:42:38.479Z,94.45
2022-12-28T11:45:25.884Z,94.81
2022-12-28T11:48:12.839Z,95.28
2022-12-28T11:51:11.163Z,94.49
2022-12-28T11:54:04.186Z,94.68
2022-12-28T11:57:06.404Z,95.10
2022-12-28T11:59:55.734Z,95.07
2022-12-28T12:02:48.363Z,94.75
2022-12-28T12:05:55.413Z,94.50
2022-12-28T12:08:42.481Z,94.54
2022-12-28T12:11:38.271Z,94.67
2022-12-28T12:14:25.551Z,95.24
2022-12-28T12:17:17.907Z,95.43
2022-12-28T12:20:10.743Z,94.56
2022-12-28T12:23:09.726Z,94.25
2022-12-28T12:25:59.577Z,94.28
2022-12-28T12:28:52.973Z,94.55
2022-12-28T12:31:51.079Z,94.55
2022-12-28T12:34:48.567Z,95.13
2022-12-28T12:37:54.774Z,95.36
2022-12-28T12:41:06.120Z,95.30
2022-12-28T12:44:22.740Z,94.60
2022-12-28T12:47:49.563Z,95.23
2022-12-28T12:51:06.833Z,94.73
2022-12-28T12:53:59.365Z,94.32
2022-12-28T12:57:03.805Z,94.64
2022-12-28T13:00:30.894Z,94.94
2022-12-28T13:03:29.849Z,94.10
2022-12-28T13:06:18.349Z,94.15
2022-12-28T13:09:08.103Z,94.80
2022-12-28T13:11:59.261Z,94.07
2022-12-28T13:14:46.176Z,95.08
2022-12-28T13:17:42.591Z,94.66
2022-12-28T13:20:39.820Z,94.14
2022-12-28T13:23:35.584Z,94.53
2022-12-28T13:26:23.271Z,94.92
2022-12-28T13:29:16.735Z,94.02
2022-12-28T13:32:04.097Z,94.93
2022-12-28T13:34:56.470Z,94.47
2022-12-28T13:37:43.621Z,94.62
2022-12-28T13:40:39.632Z,94.53
2022-12-28T13:43:45.326Z,93.68
2022-12-28T13:46:35.665Z,93.88
2022-12-28T13:49:22.740Z,93.69
2022-12-28T13:52:13.283Z,94.70
2022-12-28T13:55:03.877Z,93.75
2022-12-28T13:57:59.136Z,93.77
2022-12-28T14:00:49.312Z,94.68
2022-12-28T14:03:41.363Z,93.91
2022-12-28T14:06:30.686Z,94.12
2022-12-28T14:09:19.025Z,94.03
2022-12-28T14:12:06.744Z,94.01
2022-12-28T14:14:54.020Z,93.66
2022-12-28T14:17:44.364Z,93.49
2022-12-28T14:20:31.871Z,94.22
2022-12-28T14:23:48.925Z,93.66
2022-12-28T14:26:41.310Z,94.08
2022-12-28T14:29:38.122Z,93.75
2022-12-28T14:32:36.374Z,93.38
2022-12-28T14:35:41.247Z,94.06
2022-12-28T14:38:38.152Z,94.13
2022-12-28T14:41:36.795Z,93.82
2022-12-28T14:44:26.543Z,93.35
2022-12-28T14:47:13.855Z,93.26
2022-12-28T14:50:01.735Z,93.79
2022-12-28T14:52:48.587Z,93.64
2022-12-28T14:55:47.434Z,93.77
2022-12-28T14:58:50.856Z,93.05
2022-12-28T15:01:39.102Z,93.59
2022-12-28T15:04:26.494Z,93.62
2022-12-28T15:07:13.421Z,93.49
2022-12-28T15:10:00.501Z,93.14
2022-12-28T15:12:47.369Z,93.05
2022-12-28T15:15:34.426Z,93.51
2022-12-28T15:18:21.514Z,93.59
2022-12-28T15:21:08.467Z,93.20
2022-12-28T15:23:55.397Z,93.49
2022-12-28T15:26:43.944Z,93.40
2022-12-28T15:32:37.674Z,93.24
2022-12-28T15:35:24.974Z,93.43
2022-12-28T15:38:11.988Z,93.08
2022-12-28T15:40:59.760Z,93.13
2022-12-28T15:43:46.714Z,92.82
2022-12-28T15:46:33.751Z,92.67
2022-12-28T15:49:26.552Z,93.35
2022-12-28T15:52:13.669Z,93.30
2022-12-28T15:55:00.618Z,92.57
2022-12-28T15:57:47.840Z,93.06
2022-12-28T16:00:35.372Z,92.91
2022-12-28T16:03:22.413Z,92.78
2022-12-28T16:06:09.345Z,92.98
2022-12-28T16:08:56.236Z,93.01
2022-12-28T16:11:45.012Z,92.76
2022-12-28T16:14:16.272Z,92.68
2022-12-28T16:16:43.920Z,92.83
2022-12-28T16:19:14.200Z,92.65
2022-12-28T16:21:42.316Z,92.80
2022-12-28T16:24:10.025Z,92.59
2022-12-28T16:26:37.048Z,92.68
2022-12-28T16:29:04.169Z,92.48
2022-12-28T16:31:36.453Z,92.58
2022-12-28T16:34:15.333Z,92.84
2022-12-28T16:36:44.905Z,92.86
2022-12-28T16:39:17.683Z,92.85
2022-12-28T16:41:44.731Z,92.48
2022-12-28T16:44:17.263Z,92.45
2022-12-28T16:46:44.524Z,92.48
2022-12-28T16:49:12.226Z,92.12
2022-12-28T16:51:41.047Z,92.11
2022-12-28T16:54:08.814Z,92.35
2022-12-28T16:56:36.284Z,92.42
2022-12-28T16:59:03.291Z,92.18
2022-12-28T17:01:30.259Z,92.10
2022-12-28T17:04:03.444Z,92.08
2022-12-28T17:06:31.646Z,92.22
2022-12-28T17:09:01.687Z,92.08
2022-12-28T17:11:28.624Z,92.03
2022-12-28T17:14:04.037Z,92.17
2022-12-28T17:16:31.693Z,92.07
2022-12-28T17:18:59.596Z,91.50
2022-12-28T17:21:28.972Z,92.45
2022-12-28T17:23:55.984Z,91.67
2022-12-28T17:26:23.071Z,91.31
2022-12-28T17:28:49.969Z,91.60
2022-12-28T17:31:40.271Z,91.88
2022-12-28T17:34:29.530Z,91.89
2022-12-28T17:37:16.467Z,91.95
2022-12-28T17:40:03.333Z,92.00
2022-12-28T17:42:50.210Z,91.44
2022-12-28T17:45:37.489Z,91.66
2022-12-28T17:48:24.695Z,91.48
2022-12-28T17:51:11.780Z,91.68
2022-12-28T17:53:59.706Z,91.56
2022-12-28T17:56:46.848Z,91.53
2022-12-28T17:59:36.244Z,91.29
2022-12-28T18:02:23.386Z,91.48
2022-12-28T18:05:10.319Z,91.44
2022-12-28T18:07:57.522Z,91.23
2022-12-28T18:10:44.530Z,91.24
2022-12-28T18:13:32.611Z,91.61
2022-12-28T18:16:19.476Z,91.40
2022-12-28T18:19:06.529Z,91.08
2022-12-28T18:21:53.354Z,91.28
2022-12-28T18:24:40.317Z,91.16
2022-12-28T18:27:27.534Z,91.25
2022-12-28T18:30:14.826Z,91.12
2022-12-28T18:33:01.822Z,91.19
2022-12-28T18:35:48.677Z,91.42
2022-12-28T18:38:35.578Z,90.78
2022-12-28T18:41:22.719Z,90.98
2022-12-28T18:44:10.481Z,90.90
2022-12-28T18:46:57.621Z,91.22
2022-12-28T18:49:47.284Z,90.56
2022-12-28T18:52:36.069Z,90.87
2022-12-28T18:55:23.507Z,90.78
2022-12-28T18:58:10.749Z,90.87
2022-12-28T19:00:58.820Z,90.67
2022-12-28T19:03:45.960Z,90.92
2022-12-28T19:06:33.001Z,90.89
2022-12-28T19:09:21.134Z,91.14
2022-12-28T19:12:07.966Z,91.18
2022-12-28T19:14:54.797Z,90.87
2022-12-28T19:17:41.823Z,90.94
2022-12-28T19:20:29.155Z,91.04
2022-12-28T19:23:15.986Z,90.31
2022-12-28T19:26:03.064Z,90.21
2022-12-28T19:28:50.799Z,90.89
2022-12-28T19:31:38.133Z,90.60
2022-12-28T19:34:25.176Z,90.89
2022-12-28T19:37:12.998Z,90.92
2022-12-28T19:39:59.844Z,90.40
2022-12-28T19:42:46.832Z,90.72
2022-12-28T19:45:33.895Z,90.29
2022-12-28T19:48:21.391Z,90.09
2022-12-28T19:51:08.363Z,90.22
2022-12-28T19:53:55.662Z,90.34
2022-12-28T19:56:44.029Z,90.69
2022-12-28T19:59:30.939Z,90.85
2022-12-28T20:02:17.911Z,89.96
2022-12-28T20:05:04.925Z,90.75
2022-12-28T20:07:52.098Z,90.24
2022-12-28T20:10:39.022Z,90.39
2022-12-28T20:13:26.259Z,89.97
2022-12-28T20:16:13.257Z,90.54
2022-12-28T20:19:00.148Z,90.20
2022-12-28T20:21:47.372Z,90.17
2022-12-28T20:24:34.583Z,90.35
2022-12-28T20:27:21.510Z,90.00
2022-12-28T20:30:08.330Z,89.89
2022-12-28T20:32:55.438Z,89.75
2022-12-28T20:35:42.690Z,89.87
2022-12-28T20:38:30.236Z,90.29
2022-12-28T20:41:31.147Z,89.72
2022-12-28T20:44:19.814Z,89.68
2022-12-28T20:47:06.771Z,90.00
2022-12-28T20:49:54.115Z,89.40
2022-12-28T20:52:41.029Z,90.07
2022-12-28T20:55:28.028Z,89.31
2022-12-28T20:58:14.952Z,89.74
2022-12-28T21:01:02.141Z,90.13
2022-12-28T21:03:49.216Z,89.21
2022-12-28T21:06:36.191Z,89.37
2022-12-28T21:09:23.811Z,89.66
2022-12-28T21:12:10.765Z,89.71
2022-12-28T21:14:57.697Z,89.59
2022-12-28T21:17:44.599Z,89.20
2022-12-28T21:20:38.598Z,89.39
2022-12-28T21:23:26.027Z,89.08
2022-12-28T21:26:12.868Z,89.29
2022-12-28T21:29:00.125Z,89.66
2022-12-28T21:31:47.333Z,88.89
2022-12-28T21:34:34.360Z,89.71
2022-12-28T21:37:21.271Z,89.50
2022-12-28T21:40:08.206Z,88.77
2022-12-28T21:42:56.357Z,89.66
2022-12-28T21:45:43.923Z,88.98
2022-12-28T21:48:31.025Z,89.33
2022-12-28T21:51:28.644Z,88.78
2022-12-28T21:54:16.308Z,89.62
2022-12-28T21:57:05.522Z,88.85
2022-12-28T21:59:52.556Z,88.62
2022-12-28T22:02:38.464Z,88.93
2022-12-28T22:05:25.060Z,88.97
2022-12-28T22:08:12.560Z,88.58
2022-12-28T22:10:57.777Z,89.41
2022-12-28T22:13:44.989Z,89.26
2022-12-28T22:16:32.060Z,88.95
2022-12-28T22:19:19.802Z,88.92
2022-12-28T22:22:06.605Z,88.64
2022-12-28T22:24:53.562Z,88.80
2022-12-28T22:27:40.362Z,89.21
2022-12-28T22:30:27.787Z,89.05
2022-12-28T22:33:15.002Z,88.28
2022-12-28T22:36:02.087Z,88.21
2022-12-28T22:38:51.659Z,88.54
2022-12-28T22:41:38.446Z,88.49
2022-12-28T22:44:25.394Z,88.98
2022-12-28T22:47:12.285Z,89.05
2022-12-28T22:49:59.103Z,89.06
2022-12-28T22:52:46.048Z,88.18
2022-12-28T22:55:33.250Z,88.32
2022-12-28T22:58:20.156Z,87.92
2022-12-28T23:01:07.069Z,88.21
2022-12-28T23:03:56.625Z,88.50
2022-12-28T23:06:43.492Z,88.15
2022-12-28T23:09:30.588Z,88.65
2022-12-28T23:12:17.431Z,87.68
2022-12-28T23:15:03.164Z,87.70
2022-12-28T23:17:50.116Z,88.71
2022-12-28T23:20:36.239Z,87.89
2022-12-28T23:23:22.425Z,88.78
2022-12-28T23:26:07.857Z,87.79
2022-12-28T23:28:54.929Z,88.17
2022-12-28T23:31:41.954Z,87.79
2022-12-28T23:34:28.998Z,88.29
2022-12-28T23:37:16.013Z,88.58
2022-12-28T23:40:02.971Z,88.35
2022-12-28T23:42:50.166Z,88.35
2022-12-28T23:45:38.123Z,87.74
2022-12-28T23:48:25.362Z,87.79
2022-12-28T23:51:12.287Z,87.88
2022-12-28T23:53:59.248Z,88.21
2022-12-28T23:56:46.194Z,88.14
2022-12-28T23:59:33.049Z,87.88
